createdAt,value
2018-03-25T00:01:24.884Z,98395.25
2018-03-25T00:03:52.484Z,98390.44
2018-03-25T00:06:20.079Z,98390.54
2018-03-25T00:08:47.710Z,98391.30
2018-03-25T00:11:17.157Z,98393.74
2018-03-25T00:13:44.732Z,98393.84
2018-03-25T00:16:12.427Z,98402.22
2018-03-25T00:18:40.017Z,98400.89
2018-03-25T00:21:07.610Z,98408.81
2018-03-25T00:23:38.485Z,98409.82
2018-03-25T00:26:06.066Z,98413.06
2018-03-25T00:28:33.658Z,98416.15
2018-03-25T00:31:02.236Z,98417.58
2018-03-25T00:33:29.890Z,98418.97
2018-03-25T00:35:57.455Z,98414.23
2018-03-25T00:38:25.478Z,98406.41
2018-03-25T00:40:53.117Z,98405.98
2018-03-25T00:43:20.684Z,98399.08
2018-03-25T00:45:48.566Z,98401.73
2018-03-25T00:48:16.645Z,98398.42
2018-03-25T00:50:44.226Z,98392.89
2018-03-25T00:53:12.739Z,98392.41
2018-03-25T00:55:40.306Z,98397.42
2018-03-25T00:58:07.887Z,98403.27
2018-03-25T01:00:35.871Z,98403.36
2018-03-25T01:03:03.469Z,98402.47
2018-03-25T01:05:31.049Z,98406.87
2018-03-25T01:07:58.667Z,98412.83
2018-03-25T01:10:27.048Z,98406.34
2018-03-25T01:12:54.718Z,98405.61
2018-03-25T01:15:22.395Z,98406.23
2018-03-25T01:17:49.977Z,98399.09
2018-03-25T01:20:17.601Z,98395.31
2018-03-25T01:22:45.521Z,98397.73
2018-03-25T01:25:13.136Z,98396.97
2018-03-25T01:27:40.723Z,98400.48
2018-03-25T01:30:08.478Z,98394.84
2018-03-25T01:32:36.250Z,98397.92
2018-03-25T01:35:03.857Z,98400.95
2018-03-25T01:37:31.811Z,98391.64
2018-03-25T01:39:59.401Z,98396.48
2018-03-25T01:42:26.978Z,98391.70
2018-03-25T01:44:54.582Z,98386.53
2018-03-25T01:47:22.226Z,98382.00
2018-03-25T01:49:50.396Z,98388.23
2018-03-25T01:52:18.034Z,98390.67
2018-03-25T01:54:45.629Z,98393.77
2018-03-25T01:57:13.224Z,98395.03
2018-03-25T01:59:41.048Z,98397.33
2018-03-25T02:02:08.739Z,98389.83
2018-03-25T02:04:36.312Z,98397.48
2018-03-25T02:07:03.954Z,98393.59
2018-03-25T02:09:31.533Z,98396.19
2018-03-25T02:11:59.186Z,98386.61
2018-03-25T02:14:26.911Z,98393.00
2018-03-25T02:16:54.488Z,98399.16
2018-03-25T02:19:22.193Z,98393.09
2018-03-25T02:21:50.454Z,98399.94
2018-03-25T02:24:18.031Z,98399.36
2018-03-25T02:26:45.626Z,98405.69
2018-03-25T02:29:13.329Z,98401.69
2018-03-25T02:31:40.940Z,98417.14
2018-03-25T02:34:08.643Z,98419.20
2018-03-25T02:36:36.535Z,98424.89
2018-03-25T02:39:04.827Z,98433.52
2018-03-25T02:41:32.967Z,98431.83
2018-03-25T02:44:00.588Z,98430.92
2018-03-25T02:46:28.160Z,98437.77
2018-03-25T02:48:55.762Z,98435.75
2018-03-25T02:51:23.404Z,98441.63
2018-03-25T02:53:51.013Z,98451.05
2018-03-25T02:56:18.600Z,98450.35
2018-03-25T02:58:46.307Z,98452.59
2018-03-25T03:01:13.902Z,98454.72
2018-03-25T03:03:41.569Z,98455.14
2018-03-25T03:06:09.217Z,98459.52
2018-03-25T03:08:36.793Z,98458.00
2018-03-25T03:11:04.377Z,98455.03
2018-03-25T03:13:32.089Z,98459.18
2018-03-25T03:15:59.722Z,98457.59
2018-03-25T03:18:27.309Z,98459.38
2018-03-25T03:20:55.189Z,98461.24
2018-03-25T03:23:22.771Z,98457.41
2018-03-25T03:25:50.341Z,98468.86
2018-03-25T03:28:17.985Z,98467.56
2018-03-25T03:30:45.576Z,98470.29
2018-03-25T03:33:13.148Z,98467.45
2018-03-25T03:35:41.294Z,98471.06
2018-03-25T03:38:08.862Z,98466.75
2018-03-25T03:40:36.447Z,98466.75
2018-03-25T03:43:04.066Z,98462.42
2018-03-25T03:45:31.647Z,98457.20
2018-03-25T03:47:59.253Z,98463.95
2018-03-25T03:50:26.894Z,98463.80
2018-03-25T03:52:54.476Z,98463.98
2018-03-25T03:55:23.020Z,98471.70
2018-03-25T03:57:50.942Z,98476.61
2018-03-25T04:00:18.537Z,98481.39
2018-03-25T04:02:46.124Z,98481.55
2018-03-25T04:05:13.767Z,98481.41
2018-03-25T04:07:41.352Z,98489.12
2018-03-25T04:10:08.990Z,98494.30
2018-03-25T04:12:36.635Z,98494.97
2018-03-25T04:15:04.281Z,98488.36
2018-03-25T04:17:31.853Z,98492.21
2018-03-25T04:19:59.720Z,98497.96
2018-03-25T04:22:28.251Z,98494.05
2018-03-25T04:24:56.231Z,98499.98
2018-03-25T04:27:23.856Z,98504.41
2018-03-25T04:29:51.440Z,98512.77
2018-03-25T04:32:19.016Z,98511.80
2018-03-25T04:34:46.661Z,98515.00
2018-03-25T04:37:14.353Z,98517.73
2018-03-25T04:39:42.010Z,98510.22
2018-03-25T04:42:09.662Z,98510.47
2018-03-25T04:44:37.236Z,98508.62
2018-03-25T04:47:04.800Z,98514.47
2018-03-25T04:49:32.430Z,98513.23
2018-03-25T04:52:00.020Z,98527.55
2018-03-25T04:54:27.593Z,98525.89
2018-03-25T04:56:55.423Z,98533.17
2018-03-25T04:59:25.968Z,98534.41
2018-03-25T05:01:53.536Z,98540.64
2018-03-25T05:04:22.137Z,98537.40
2018-03-25T05:06:49.765Z,98548.09
2018-03-25T05:09:17.349Z,98537.11
2018-03-25T05:11:45.321Z,98545.50
2018-03-25T05:14:12.914Z,98543.48
2018-03-25T05:16:40.503Z,98543.51
2018-03-25T05:19:08.129Z,98551.20
2018-03-25T05:21:35.716Z,98556.47
2018-03-25T05:24:03.310Z,98543.27
2018-03-25T05:26:30.949Z,98529.39
2018-03-25T05:28:58.520Z,98534.39
2018-03-25T05:31:26.156Z,98534.97
2018-03-25T05:33:54.079Z,98530.94
2018-03-25T05:36:21.668Z,98531.75
2018-03-25T05:38:49.603Z,98529.34
2018-03-25T05:41:17.537Z,98530.73
2018-03-25T05:43:45.123Z,98533.84
2018-03-25T05:46:12.726Z,98530.43
2018-03-25T05:48:40.354Z,98529.01
2018-03-25T05:51:07.924Z,98540.67
2018-03-25T05:53:35.570Z,98549.97
2018-03-25T05:56:04.033Z,98553.43
2018-03-25T05:58:31.809Z,98557.16
2018-03-25T06:01:00.235Z,98566.49
2018-03-25T06:03:27.931Z,98562.36
2018-03-25T06:05:55.510Z,98569.45
2018-03-25T06:08:23.097Z,98567.25
2018-03-25T06:10:50.790Z,98569.53
2018-03-25T06:13:18.365Z,98572.67
2018-03-25T06:15:45.969Z,98571.19
2018-03-25T06:18:13.620Z,98572.42
2018-03-25T06:20:41.225Z,98574.59
2018-03-25T06:23:08.862Z,98574.52
2018-03-25T06:25:36.736Z,98577.46
2018-03-25T06:28:04.344Z,98585.17
2018-03-25T06:30:31.934Z,98589.53
2018-03-25T06:33:00.705Z,98591.75
2018-03-25T06:35:28.372Z,98596.36
2018-03-25T06:37:55.975Z,98599.84
2018-03-25T06:40:23.716Z,98615.52
2018-03-25T06:42:51.310Z,98615.61
2018-03-25T06:45:18.893Z,98621.16
2018-03-25T06:47:47.075Z,98624.30
2018-03-25T06:50:14.661Z,98636.94
2018-03-25T06:52:43.086Z,98629.09
2018-03-25T06:55:10.714Z,98633.44
2018-03-25T06:57:38.322Z,98635.73
2018-03-25T07:00:05.910Z,98630.18
2018-03-25T07:02:33.869Z,98641.22
2018-03-25T07:05:01.449Z,98639.09
2018-03-25T07:07:29.042Z,98641.54
2018-03-25T07:09:56.674Z,98638.00
2018-03-25T07:12:24.252Z,98646.68
2018-03-25T07:14:53.698Z,98649.56
2018-03-25T07:17:21.317Z,98650.59
2018-03-25T07:19:48.905Z,98641.38
2018-03-25T07:22:16.507Z,98650.89
2018-03-25T07:24:44.168Z,98657.71
2018-03-25T07:27:11.736Z,98663.14
2018-03-25T07:29:39.378Z,98666.78
2018-03-25T07:32:07.300Z,98664.72
2018-03-25T07:34:34.938Z,98668.88
2018-03-25T07:37:02.578Z,98671.88
2018-03-25T07:39:30.487Z,98672.88
2018-03-25T07:41:58.165Z,98669.22
2018-03-25T07:44:25.841Z,98666.80
2018-03-25T07:46:53.542Z,98671.56
2018-03-25T07:49:21.118Z,98671.12
2018-03-25T07:51:48.763Z,98677.96
2018-03-25T07:54:16.422Z,98673.39
2018-03-25T07:56:44.071Z,98678.05
2018-03-25T07:59:11.654Z,98673.38
2018-03-25T08:01:39.374Z,98679.41
2018-03-25T08:04:06.961Z,98670.86
2018-03-25T08:06:34.537Z,98672.76
2018-03-25T08:09:03.142Z,98666.96
2018-03-25T08:11:31.043Z,98664.21
2018-03-25T08:13:58.658Z,98665.87
2018-03-25T08:16:26.644Z,98669.42
2018-03-25T08:18:55.125Z,98670.81
2018-03-25T08:21:22.720Z,98675.16
2018-03-25T08:23:51.392Z,98671.88
2018-03-25T08:26:18.979Z,98678.41
2018-03-25T08:28:46.587Z,98677.30
2018-03-25T08:31:14.249Z,98677.27
2018-03-25T08:33:41.828Z,98683.05
2018-03-25T08:36:09.420Z,98681.38
2018-03-25T08:38:37.114Z,98695.41
2018-03-25T08:41:04.701Z,98688.68
2018-03-25T08:43:32.392Z,98695.99
2018-03-25T08:46:00.241Z,98696.84
2018-03-25T08:48:27.813Z,98702.86
2018-03-25T08:50:55.385Z,98704.88
2018-03-25T08:53:23.032Z,98700.75
2018-03-25T08:55:50.856Z,98701.34
2018-03-25T08:58:18.512Z,98701.08
2018-03-25T09:00:46.563Z,98701.59
2018-03-25T09:03:14.130Z,98705.54
2018-03-25T09:05:41.709Z,98709.49
2018-03-25T09:08:09.350Z,98713.78
2018-03-25T09:10:36.913Z,98708.70
2018-03-25T09:13:04.557Z,98714.91
2018-03-25T09:15:32.191Z,98713.26
2018-03-25T09:17:59.773Z,98712.55
2018-03-25T09:20:27.366Z,98705.77
2018-03-25T09:22:55.480Z,98707.30
2018-03-25T09:25:23.082Z,98700.95
2018-03-25T09:27:51.640Z,98702.42
2018-03-25T09:30:19.280Z,98705.41
2018-03-25T09:32:46.876Z,98704.20
2018-03-25T09:35:14.460Z,98697.93
2018-03-25T09:37:42.182Z,98691.69
2018-03-25T09:40:09.748Z,98688.03
2018-03-25T09:42:37.359Z,98673.13
2018-03-25T09:45:05.556Z,98673.09
2018-03-25T09:47:33.166Z,98668.03
2018-03-25T09:50:00.751Z,98669.89
2018-03-25T09:52:28.453Z,98669.23
2018-03-25T09:54:56.055Z,98686.12
2018-03-25T09:57:23.624Z,98692.02
2018-03-25T09:59:51.269Z,98686.97
2018-03-25T10:02:18.851Z,98678.37
2018-03-25T10:04:46.503Z,98688.95
2018-03-25T10:07:14.418Z,98688.02
2018-03-25T10:09:41.988Z,98684.90
2018-03-25T10:12:10.603Z,98683.52
2018-03-25T10:14:38.341Z,98699.84
2018-03-25T10:17:05.939Z,98695.77
2018-03-25T10:19:33.527Z,98693.38
2018-03-25T10:22:01.166Z,98690.30
2018-03-25T10:24:28.746Z,98690.94
2018-03-25T10:26:56.334Z,98690.67
2018-03-25T10:29:24.234Z,98684.75
2018-03-25T10:31:51.797Z,98692.91
2018-03-25T10:34:19.462Z,98693.05
2018-03-25T10:36:48.070Z,98699.83
2018-03-25T10:39:15.715Z,98699.84
2018-03-25T10:41:43.309Z,98699.42
2018-03-25T10:44:10.952Z,98698.78
2018-03-25T10:46:38.592Z,98690.43
2018-03-25T10:49:06.172Z,98692.66
2018-03-25T10:51:33.846Z,98696.35
2018-03-25T10:54:01.443Z,98694.45
2018-03-25T10:56:29.142Z,98692.34
2018-03-25T10:58:56.776Z,98679.82
2018-03-25T11:01:24.395Z,98682.83
2018-03-25T11:03:52.002Z,98678.12
2018-03-25T11:06:19.628Z,98673.78
2018-03-25T11:08:47.259Z,98679.26
2018-03-25T11:11:14.861Z,98674.77
2018-03-25T11:13:42.838Z,98665.84
2018-03-25T11:16:10.404Z,98660.03
2018-03-25T11:18:38.020Z,98661.08
2018-03-25T11:21:05.657Z,98659.37
2018-03-25T11:23:33.236Z,98662.14
2018-03-25T11:26:00.835Z,98664.19
2018-03-25T11:28:28.470Z,98661.65
2018-03-25T11:30:56.077Z,98666.13
2018-03-25T11:33:23.640Z,98652.06
2018-03-25T11:35:51.553Z,98654.98
2018-03-25T11:38:19.153Z,98664.23
2018-03-25T11:40:46.752Z,98659.56
2018-03-25T11:43:14.369Z,98661.54
2018-03-25T11:45:42.895Z,98664.16
2018-03-25T11:48:10.546Z,98654.55
2018-03-25T11:50:38.182Z,98658.23
2018-03-25T11:53:05.766Z,98663.23
2018-03-25T11:55:33.410Z,98651.45
2018-03-25T11:58:01.057Z,98651.91
2018-03-25T12:00:28.662Z,98658.04
2018-03-25T12:02:56.247Z,98656.19
2018-03-25T12:05:24.185Z,98649.53
2018-03-25T12:07:51.781Z,98655.15
2018-03-25T12:10:19.379Z,98647.05
2018-03-25T12:12:47.007Z,98657.95
2018-03-25T12:15:14.584Z,98656.59
2018-03-25T12:17:42.156Z,98654.58
2018-03-25T12:20:09.793Z,98663.11
2018-03-25T12:22:37.398Z,98667.37
2018-03-25T12:25:05.073Z,98671.52
2018-03-25T12:27:32.679Z,98672.78
2018-03-25T12:30:00.259Z,98665.22
2018-03-25T12:32:27.860Z,98672.00
2018-03-25T12:34:55.484Z,98669.14
2018-03-25T12:37:23.066Z,98667.35
2018-03-25T12:39:50.632Z,98657.80
2018-03-25T12:42:18.257Z,98660.41
2018-03-25T12:44:45.903Z,98669.83
2018-03-25T12:47:13.521Z,98664.12
2018-03-25T12:49:41.692Z,98664.88
2018-03-25T12:52:09.268Z,98660.94
2018-03-25T12:54:36.836Z,98661.78
2018-03-25T12:57:04.714Z,98653.98
2018-03-25T12:59:32.300Z,98653.70
2018-03-25T13:01:59.926Z,98646.41
2018-03-25T13:04:27.557Z,98643.65
2018-03-25T13:06:55.121Z,98648.75
2018-03-25T13:09:22.703Z,98647.47
2018-03-25T13:11:50.335Z,98657.11
2018-03-25T13:14:18.005Z,98645.85
2018-03-25T13:16:45.584Z,98651.69
2018-03-25T13:19:13.234Z,98648.41
2018-03-25T13:21:40.829Z,98652.27
2018-03-25T13:24:08.497Z,98654.02
2018-03-25T13:26:36.122Z,98649.21
2018-03-25T13:29:03.814Z,98663.78
2018-03-25T13:31:31.430Z,98664.80
2018-03-25T13:33:59.077Z,98664.42
2018-03-25T13:36:26.660Z,98657.11
2018-03-25T13:38:54.251Z,98662.93
2018-03-25T13:41:21.892Z,98661.44
2018-03-25T13:43:49.471Z,98664.74
2018-03-25T13:46:17.115Z,98667.61
2018-03-25T13:48:44.758Z,98666.47
2018-03-25T13:51:12.578Z,98668.02
2018-03-25T13:53:40.217Z,98664.45
2018-03-25T13:56:07.869Z,98662.98
2018-03-25T13:58:35.484Z,98665.55
2018-03-25T14:01:03.081Z,98655.08
2018-03-25T14:03:30.709Z,98661.44
2018-03-25T14:05:58.314Z,98658.68
2018-03-25T14:08:26.073Z,98667.39
2018-03-25T14:10:53.785Z,98659.23
2018-03-25T14:13:21.389Z,98652.30
2018-03-25T14:15:48.977Z,98650.86
2018-03-25T14:18:16.619Z,98645.64
2018-03-25T14:20:44.258Z,98656.12
2018-03-25T14:23:11.866Z,98661.20
2018-03-25T14:25:39.537Z,98655.16
2018-03-25T14:28:07.206Z,98655.30
2018-03-25T14:30:34.818Z,98661.28
2018-03-25T14:33:02.675Z,98664.22
2018-03-25T14:35:30.254Z,98653.69
2018-03-25T14:37:57.914Z,98657.67
2018-03-25T14:40:25.573Z,98652.48
2018-03-25T14:42:53.261Z,98647.34
2018-03-25T14:45:20.854Z,98654.75
2018-03-25T14:47:48.503Z,98648.80
2018-03-25T14:50:16.160Z,98656.18
2018-03-25T14:52:44.668Z,98649.64
2018-03-25T14:55:13.092Z,98652.77
2018-03-25T14:57:40.737Z,98649.63
2018-03-25T15:00:08.416Z,98651.10
2018-03-25T15:02:36.323Z,98645.31
2018-03-25T15:05:04.061Z,98651.58
2018-03-25T15:07:31.712Z,98643.02
2018-03-25T15:09:59.374Z,98644.15
2018-03-25T15:12:27.019Z,98655.95
2018-03-25T15:14:54.630Z,98658.73
2018-03-25T15:17:22.327Z,98660.08
2018-03-25T15:19:50.123Z,98654.11
2018-03-25T15:22:17.941Z,98655.95
2018-03-25T15:24:46.099Z,98658.63
2018-03-25T15:27:14.021Z,98660.96
2018-03-25T15:29:41.853Z,98658.62
2018-03-25T15:32:09.801Z,98658.17
2018-03-25T15:34:37.690Z,98656.28
2018-03-25T15:37:05.632Z,98653.84
2018-03-25T15:39:33.644Z,98650.56
2018-03-25T15:42:01.555Z,98653.13
2018-03-25T15:44:29.431Z,98647.55
2018-03-25T15:46:57.351Z,98657.07
2018-03-25T15:49:25.232Z,98659.33
2018-03-25T15:51:53.123Z,98660.04
2018-03-25T15:54:21.117Z,98663.92
2018-03-25T15:56:48.983Z,98666.30
2018-03-25T15:59:16.877Z,98655.64
2018-03-25T16:01:45.019Z,98663.05
2018-03-25T16:04:12.902Z,98658.48
2018-03-25T16:06:40.800Z,98655.86
2018-03-25T16:09:09.014Z,98657.02
2018-03-25T16:11:38.074Z,98661.11
2018-03-25T16:14:05.981Z,98664.14
2018-03-25T16:16:33.906Z,98669.17
2018-03-25T16:19:01.778Z,98666.25
2018-03-25T16:21:29.671Z,98662.70
2018-03-25T16:23:57.635Z,98666.44
2018-03-25T16:26:25.541Z,98670.61
2018-03-25T16:28:53.454Z,98670.58
2018-03-25T16:31:21.410Z,98661.31
2018-03-25T16:33:49.332Z,98666.59
2018-03-25T16:36:17.317Z,98671.45
2018-03-25T16:38:45.303Z,98671.56
2018-03-25T16:41:14.124Z,98671.45
2018-03-25T16:43:42.100Z,98673.94
2018-03-25T16:46:10.290Z,98660.82
2018-03-25T16:48:38.200Z,98666.82
2018-03-25T16:51:06.151Z,98671.80
2018-03-25T16:53:34.163Z,98666.41
2018-03-25T16:56:02.156Z,98672.52
2018-03-25T16:58:30.110Z,98665.84
2018-03-25T17:00:58.047Z,98668.30
2018-03-25T17:03:25.952Z,98662.98
2018-03-25T17:05:53.859Z,98667.70
2018-03-25T17:08:22.074Z,98664.22
2018-03-25T17:10:50.026Z,98673.30
2018-03-25T17:13:17.971Z,98675.66
2018-03-25T17:15:46.890Z,98678.69
2018-03-25T17:18:14.846Z,98683.64
2018-03-25T17:20:42.776Z,98685.05
2018-03-25T17:23:11.013Z,98689.41
2018-03-25T17:25:38.919Z,98686.99
2018-03-25T17:28:06.827Z,98692.50
2018-03-25T17:30:34.785Z,98691.59
2018-03-25T17:33:02.672Z,98691.78
2018-03-25T17:35:30.576Z,98696.53
2018-03-25T17:37:58.601Z,98697.45
2018-03-25T17:40:26.608Z,98708.34
2018-03-25T17:42:54.505Z,98709.45
2018-03-25T17:45:22.464Z,98716.39
2018-03-25T17:47:50.364Z,98723.51
2018-03-25T17:50:18.310Z,98724.35
2018-03-25T17:52:46.267Z,98721.31
2018-03-25T17:55:14.181Z,98719.11
2018-03-25T17:57:42.412Z,98723.69
2018-03-25T18:00:11.030Z,98716.73
2018-03-25T18:02:38.945Z,98720.08
2018-03-25T18:05:06.909Z,98711.91
2018-03-25T18:07:35.084Z,98716.55
2018-03-25T18:10:02.992Z,98715.70
2018-03-25T18:12:30.964Z,98717.39
2018-03-25T18:14:59.188Z,98713.56
2018-03-25T18:17:34.100Z,98717.38
2018-03-25T18:19:55.081Z,98710.90
2018-03-25T18:22:23.038Z,98704.39
2018-03-25T18:24:51.020Z,98709.69
2018-03-25T18:27:20.056Z,98712.23
2018-03-25T18:29:48.621Z,98714.19
2018-03-25T18:32:16.597Z,98710.05
2018-03-25T18:34:44.580Z,98710.06
2018-03-25T18:37:12.543Z,98712.24
2018-03-25T18:39:41.312Z,98710.42
2018-03-25T18:42:09.289Z,98713.35
2018-03-25T18:44:37.220Z,98711.39
2018-03-25T18:47:05.145Z,98714.86
2018-03-25T18:49:33.082Z,98711.99
2018-03-25T18:52:01.052Z,98707.63
2018-03-25T18:54:29.979Z,98701.66
2018-03-25T18:56:57.942Z,98696.59
2018-03-25T18:59:26.231Z,98704.56
2018-03-25T19:01:54.193Z,98701.09
2018-03-25T19:04:22.129Z,98709.62
2018-03-25T19:06:50.196Z,98704.44
2018-03-25T19:09:18.116Z,98706.78
2018-03-25T19:11:46.909Z,98700.73
2018-03-25T19:14:14.987Z,98707.13
2018-03-25T19:16:43.506Z,98709.07
2018-03-25T19:19:11.579Z,98710.23
2018-03-25T19:21:39.560Z,98707.56
2018-03-25T19:24:08.387Z,98699.33
2018-03-25T19:26:36.282Z,98705.73
2018-03-25T19:29:05.191Z,98701.71
2018-03-25T19:31:33.476Z,98705.08
2018-03-25T19:34:01.392Z,98708.77
2018-03-25T19:36:29.676Z,98697.27
2018-03-25T19:38:57.652Z,98697.69
2018-03-25T19:41:25.622Z,98700.44
2018-03-25T19:43:53.903Z,98703.12
2018-03-25T19:46:21.802Z,98700.73
2018-03-25T19:48:49.772Z,98697.27
2018-03-25T19:51:17.759Z,98696.00
2018-03-25T19:53:45.721Z,98697.89
2018-03-25T19:56:14.410Z,98690.44
2018-03-25T19:58:42.431Z,98690.22
2018-03-25T20:01:10.548Z,98682.68
2018-03-25T20:03:38.507Z,98685.53
2018-03-25T20:06:06.476Z,98681.28
2018-03-25T20:08:34.677Z,98684.97
2018-03-25T20:11:02.570Z,98689.25
2018-03-25T20:13:30.872Z,98684.73
2018-03-25T20:15:58.762Z,98691.18
2018-03-25T20:18:26.659Z,98696.66
2018-03-25T20:20:54.655Z,98689.91
2018-03-25T20:23:22.551Z,98684.25
2018-03-25T20:25:50.540Z,98685.89
2018-03-25T20:28:18.502Z,98687.36
2018-03-25T20:30:46.779Z,98682.93
2018-03-25T20:33:14.674Z,98679.08
2018-03-25T20:35:42.612Z,98681.27
2018-03-25T20:38:10.519Z,98678.84
2018-03-25T20:40:38.406Z,98679.14
2018-03-25T20:43:06.878Z,98671.17
2018-03-25T20:45:34.767Z,98674.20
2018-03-25T20:48:02.742Z,98665.09
2018-03-25T20:50:31.218Z,98663.56
2018-03-25T20:52:59.110Z,98650.55
2018-03-25T20:55:27.062Z,98644.77
2018-03-25T20:57:55.049Z,98638.08
2018-03-25T21:00:22.934Z,98638.21
2018-03-25T21:02:50.941Z,98637.36
2018-03-25T21:05:18.982Z,98630.41
2018-03-25T21:07:46.891Z,98640.20
2018-03-25T21:10:14.782Z,98627.87
2018-03-25T21:12:42.993Z,98627.24
2018-03-25T21:15:10.911Z,98627.73
2018-03-25T21:17:38.760Z,98621.66
2018-03-25T21:20:07.031Z,98622.70
2018-03-25T21:22:34.877Z,98615.52
2018-03-25T21:25:02.749Z,98617.94
2018-03-25T21:27:30.705Z,98616.86
2018-03-25T21:29:59.185Z,98611.13
2018-03-25T21:32:27.023Z,98609.36
2018-03-25T21:34:54.927Z,98602.38
2018-03-25T21:37:22.777Z,98595.25
2018-03-25T21:39:50.697Z,98594.05
2018-03-25T21:42:18.626Z,98594.70
2018-03-25T21:44:46.534Z,98584.06
2018-03-25T21:47:14.353Z,98581.44
2018-03-25T21:49:42.527Z,98583.56
2018-03-25T21:52:13.256Z,98577.25
2018-03-25T21:54:40.899Z,98577.34
2018-03-25T21:57:10.726Z,98572.95
2018-03-25T21:59:38.309Z,98563.95
2018-03-25T22:02:05.951Z,98563.47
2018-03-25T22:04:33.932Z,98560.91
2018-03-25T22:07:01.514Z,98550.67
2018-03-25T22:09:29.109Z,98556.04
2018-03-25T22:11:56.785Z,98547.23
2018-03-25T22:14:25.320Z,98536.47
2018-03-25T22:16:52.932Z,98535.56
2018-03-25T22:19:20.561Z,98531.13
2018-03-25T22:21:48.142Z,98532.03
2018-03-25T22:24:15.746Z,98526.07
2018-03-25T22:26:43.583Z,98525.09
2018-03-25T22:29:11.152Z,98529.45
2018-03-25T22:31:38.808Z,98525.47
2018-03-25T22:34:06.555Z,98521.22
2018-03-25T22:36:34.257Z,98516.83
2018-03-25T22:39:01.850Z,98514.34
2018-03-25T22:41:29.760Z,98516.81
2018-03-25T22:43:57.348Z,98518.08
2018-03-25T22:46:25.001Z,98508.95
2018-03-25T22:48:52.702Z,98518.86
2018-03-25T22:51:20.280Z,98515.14
2018-03-25T22:53:47.860Z,98514.55
2018-03-25T22:56:15.716Z,98506.23
2018-03-25T22:58:43.310Z,98503.42
2018-03-25T23:01:10.945Z,98507.06
2018-03-25T23:03:38.840Z,98500.44
2018-03-25T23:06:06.751Z,98491.42
2018-03-25T23:08:34.344Z,98487.08
2018-03-25T23:11:02.860Z,98471.41
2018-03-25T23:13:30.445Z,98477.07
2018-03-25T23:15:58.008Z,98477.42
2018-03-25T23:18:25.662Z,98472.09
2018-03-25T23:20:53.232Z,98474.41
2018-03-25T23:23:20.832Z,98473.38
2018-03-25T23:25:48.491Z,98466.67
2018-03-25T23:28:16.239Z,98467.66
2018-03-25T23:30:43.929Z,98458.08
2018-03-25T23:33:12.526Z,98465.73
2018-03-25T23:35:40.115Z,98464.88
2018-03-25T23:38:07.710Z,98461.81
2018-03-25T23:40:35.547Z,98455.97
2018-03-25T23:43:03.886Z,98447.52
2018-03-25T23:45:31.538Z,98447.19
2018-03-25T23:47:59.514Z,98433.73
2018-03-25T23:50:27.092Z,98437.53
2018-03-25T23:52:54.687Z,98423.45
2018-03-25T23:55:22.326Z,98419.08
2018-03-25T23:57:49.936Z,98410.98
